createdAt,value
2022-08-05T00:01:36.425Z,29.10
2022-08-05T00:04:18.899Z,28.90
2022-08-05T00:06:47.041Z,28.90
2022-08-05T00:09:15.799Z,28.60
2022-08-05T00:11:48.247Z,28.60
2022-08-05T00:14:17.425Z,28.40
2022-08-05T00:16:53.216Z,28.20
2022-08-05T00:19:25.055Z,28.10
2022-08-05T00:22:00.217Z,28.20
2022-08-05T00:24:31.224Z,28.20
2022-08-05T00:26:59.378Z,28.30
2022-08-05T00:29:27.597Z,28.00
2022-08-05T00:32:13.108Z,28.10
2022-08-05T00:35:05.391Z,27.80
2022-08-05T00:37:50.283Z,28.10
2022-08-05T00:40:26.755Z,27.90
2022-08-05T00:42:56.838Z,28.00
2022-08-05T00:45:28.101Z,27.90
2022-08-05T00:48:13.044Z,27.80
2022-08-05T00:50:41.254Z,28.10
2022-08-05T00:53:09.903Z,27.60
2022-08-05T00:55:56.489Z,27.90
2022-08-05T00:58:27.472Z,28.10
2022-08-05T01:00:54.934Z,28.30
2022-08-05T01:03:35.930Z,28.40
2022-08-05T01:06:15.344Z,28.40
2022-08-05T01:09:09.072Z,28.20
2022-08-05T01:11:44.947Z,28.20
2022-08-05T01:14:15.261Z,28.20
2022-08-05T01:17:01.709Z,28.10
2022-08-05T01:20:02.479Z,28.00
2022-08-05T01:22:28.071Z,28.10
2022-08-05T01:25:14.197Z,28.30
2022-08-05T01:28:00.594Z,28.50
2022-08-05T01:30:34.058Z,28.30
2022-08-05T01:33:08.048Z,28.40
2022-08-05T01:35:51.989Z,28.60
2022-08-05T01:38:41.153Z,28.90
2022-08-05T01:41:08.294Z,28.80
2022-08-05T01:43:56.669Z,28.90
2022-08-05T01:46:42.529Z,28.60
2022-08-05T01:49:23.789Z,27.80
2022-08-05T01:51:52.553Z,27.80
2022-08-05T01:54:19.708Z,27.70
2022-08-05T01:58:10.549Z,27.70
2022-08-05T01:59:40.017Z,27.70
2022-08-05T02:02:10.609Z,27.80
2022-08-05T02:05:14.146Z,27.70
2022-08-05T02:07:57.841Z,28.00
2022-08-05T02:10:30.498Z,28.30
2022-08-05T02:13:17.638Z,27.90
2022-08-05T02:16:03.850Z,27.80
2022-08-05T02:18:44.634Z,27.80
2022-08-05T02:21:18.833Z,28.10
2022-08-05T02:23:54.286Z,28.30
2022-08-05T02:26:26.549Z,28.60
2022-08-05T02:28:55.568Z,28.40
2022-08-05T02:31:37.794Z,27.20
2022-08-05T02:34:06.255Z,26.90
2022-08-05T02:36:58.594Z,27.00
2022-08-05T02:39:25.779Z,26.80
2022-08-05T02:42:00.953Z,26.70
2022-08-05T02:44:28.839Z,26.30
2022-08-05T02:47:00.099Z,26.20
2022-08-05T02:49:35.824Z,25.90
2022-08-05T02:52:11.761Z,25.80
2022-08-05T02:54:53.590Z,25.70
2022-08-05T02:58:10.258Z,25.70
2022-08-05T03:00:09.006Z,25.70
2022-08-05T03:02:37.356Z,25.70
2022-08-05T03:05:05.335Z,25.60
2022-08-05T03:08:00.647Z,25.50
2022-08-05T03:10:22.062Z,25.50
2022-08-05T03:12:52.567Z,25.40
2022-08-05T03:15:20.109Z,25.50
2022-08-05T03:17:47.318Z,25.60
2022-08-05T03:20:14.477Z,25.60
2022-08-05T03:22:44.052Z,25.60
2022-08-05T03:25:33.308Z,25.60
2022-08-05T03:28:01.677Z,25.40
2022-08-05T03:30:33.530Z,25.30
2022-08-05T03:33:01.531Z,25.50
2022-08-05T03:35:28.967Z,25.60
2022-08-05T03:37:56.757Z,25.70
2022-08-05T03:40:32.127Z,25.50
2022-08-05T03:43:01.449Z,25.10
2022-08-05T03:45:57.315Z,24.80
2022-08-05T03:48:26.571Z,24.90
2022-08-05T03:52:39.253Z,24.60
2022-08-05T03:55:51.580Z,25.00
2022-08-05T03:56:55.777Z,25.30
2022-08-05T03:59:47.120Z,25.70
2022-08-05T04:02:38.456Z,26.00
2022-08-05T04:05:09.646Z,25.70
2022-08-05T04:07:57.903Z,25.80
2022-08-05T04:10:32.088Z,26.40
2022-08-05T04:13:00.677Z,26.60
2022-08-05T04:15:32.816Z,26.90
2022-08-05T04:18:01.984Z,26.80
2022-08-05T04:20:29.433Z,26.40
2022-08-05T04:22:58.957Z,25.80
2022-08-05T04:25:49.425Z,25.60
2022-08-05T04:28:13.397Z,25.70
2022-08-05T04:30:40.604Z,25.70
2022-08-05T04:33:10.086Z,26.00
2022-08-05T04:36:09.486Z,26.20
2022-08-05T04:38:39.561Z,26.00
2022-08-05T04:41:09.631Z,25.60
2022-08-05T04:43:37.728Z,25.50
2022-08-05T04:46:07.788Z,25.40
2022-08-05T04:48:36.111Z,25.40
2022-08-05T04:51:11.355Z,25.60
2022-08-05T04:53:39.390Z,25.50
2022-08-05T04:56:32.307Z,25.50
2022-08-05T04:58:54.718Z,25.60
2022-08-05T05:02:05.792Z,25.40
2022-08-05T05:04:09.437Z,25.20
2022-08-05T05:06:44.508Z,25.30
2022-08-05T05:09:14.255Z,25.40
2022-08-05T05:11:54.025Z,25.30
2022-08-05T05:14:27.995Z,25.50
2022-08-05T05:16:59.910Z,25.20
2022-08-05T05:19:36.169Z,25.50
2022-08-05T05:22:23.669Z,25.40
2022-08-05T05:24:57.373Z,25.20
2022-08-05T05:27:44.375Z,25.20
2022-08-05T05:30:15.579Z,25.00
2022-08-05T05:32:56.301Z,25.10
2022-08-05T05:35:23.602Z,25.00
2022-08-05T05:37:59.528Z,25.10
2022-08-05T05:40:28.103Z,25.60
2022-08-05T05:42:56.374Z,25.50
2022-08-05T05:45:24.720Z,25.40
2022-08-05T05:48:06.113Z,25.40
2022-08-05T05:50:44.014Z,25.50
2022-08-05T05:53:21.526Z,25.60
2022-08-05T05:55:51.374Z,25.80
2022-08-05T05:58:30.402Z,25.70
2022-08-05T06:01:12.079Z,25.50
2022-08-05T06:04:00.948Z,25.50
2022-08-05T06:06:27.819Z,25.60
2022-08-05T06:08:58.670Z,25.50
2022-08-05T06:11:26.104Z,25.90
2022-08-05T06:13:56.082Z,26.10
2022-08-05T06:16:30.075Z,26.10
2022-08-05T06:19:01.856Z,26.20
2022-08-05T06:21:37.603Z,26.30
2022-08-05T06:24:07.745Z,26.40
2022-08-05T06:26:38.994Z,26.30
2022-08-05T06:29:23.789Z,26.20
2022-08-05T06:31:53.387Z,26.50
2022-08-05T06:34:20.564Z,26.40
2022-08-05T06:36:56.710Z,26.80
2022-08-05T06:39:27.160Z,26.80
2022-08-05T06:41:59.046Z,26.80
2022-08-05T06:44:26.609Z,27.20
2022-08-05T06:46:54.473Z,26.80
2022-08-05T06:49:59.854Z,27.20
2022-08-05T06:52:37.135Z,26.90
2022-08-05T06:54:56.110Z,27.30
2022-08-05T06:57:58.199Z,26.90
2022-08-05T07:00:10.743Z,26.70
2022-08-05T07:02:43.003Z,26.70
2022-08-05T07:05:14.394Z,26.70
2022-08-05T07:07:48.925Z,26.60
2022-08-05T07:10:16.456Z,26.60
2022-08-05T07:13:03.117Z,26.80
2022-08-05T07:16:00.782Z,26.60
2022-08-05T07:18:30.414Z,26.70
2022-08-05T07:20:57.983Z,27.10
2022-08-05T07:23:31.981Z,27.20
2022-08-05T07:25:59.144Z,27.10
2022-08-05T07:28:26.561Z,27.20
2022-08-05T07:30:55.051Z,27.30
2022-08-05T07:33:36.501Z,27.50
2022-08-05T07:36:20.810Z,28.00
2022-08-05T07:38:49.158Z,28.20
2022-08-05T07:42:14.318Z,28.40
2022-08-05T07:44:14.245Z,28.40
2022-08-05T07:46:48.390Z,28.80
2022-08-05T07:49:16.682Z,29.40
2022-08-05T07:51:52.943Z,29.30
2022-08-05T07:54:26.752Z,29.70
2022-08-05T07:57:01.581Z,29.80
2022-08-05T07:59:42.188Z,30.20
2022-08-05T08:02:16.513Z,31.40
2022-08-05T08:04:45.562Z,31.80
2022-08-05T08:07:13.336Z,31.90
2022-08-05T08:09:40.471Z,31.50
2022-08-05T08:12:35.549Z,31.30
2022-08-05T08:14:54.894Z,30.40
2022-08-05T08:17:22.256Z,30.30
2022-08-05T08:20:22.956Z,30.00
2022-08-05T08:22:37.818Z,29.80
2022-08-05T08:25:15.753Z,30.90
2022-08-05T08:27:47.567Z,31.40
2022-08-05T08:30:29.382Z,31.60
2022-08-05T08:32:57.525Z,32.30
2022-08-05T08:35:26.617Z,33.10
2022-08-05T08:37:56.321Z,34.00
2022-08-05T08:40:23.792Z,32.90
2022-08-05T08:42:52.704Z,32.80
2022-08-05T08:45:27.019Z,32.80
2022-08-05T08:48:07.484Z,33.60
2022-08-05T08:51:03.373Z,35.20
2022-08-05T08:53:35.603Z,35.00
2022-08-05T08:56:06.007Z,34.10
2022-08-05T08:58:36.875Z,35.30
2022-08-05T09:01:06.182Z,32.40
2022-08-05T09:03:44.994Z,31.80
2022-08-05T09:06:15.815Z,33.90
2022-08-05T09:08:45.734Z,33.40
2022-08-05T09:11:13.924Z,32.00
2022-08-05T09:13:41.568Z,32.90
2022-08-05T09:16:28.704Z,33.30
2022-08-05T09:18:56.559Z,33.80
2022-08-05T09:22:22.028Z,33.30
2022-08-05T09:24:15.660Z,33.00
2022-08-05T09:26:46.223Z,33.10
2022-08-05T09:29:18.769Z,33.50
2022-08-05T09:32:45.803Z,33.80
2022-08-05T09:34:55.056Z,34.00
2022-08-05T09:38:17.763Z,33.10
2022-08-05T09:40:28.879Z,32.20
2022-08-05T09:42:56.088Z,33.00
2022-08-05T09:46:06.908Z,33.10
2022-08-05T09:48:21.810Z,33.20
2022-08-05T09:50:55.401Z,33.10
2022-08-05T09:53:54.085Z,32.70
2022-08-05T09:56:12.962Z,32.50
2022-08-05T09:58:42.018Z,31.60
2022-08-05T10:01:15.151Z,32.00
2022-08-05T10:04:00.221Z,32.40
2022-08-05T10:06:28.193Z,32.80
2022-08-05T10:08:56.107Z,32.50
2022-08-05T10:11:23.980Z,33.10
2022-08-05T10:13:58.542Z,33.00
2022-08-05T10:16:37.921Z,33.70
2022-08-05T10:19:23.770Z,33.40
2022-08-05T10:22:08.952Z,33.50
2022-08-05T10:24:39.666Z,33.10
2022-08-05T10:27:07.602Z,33.40
2022-08-05T10:30:41.423Z,34.00
2022-08-05T10:32:52.207Z,33.80
2022-08-05T10:35:11.292Z,33.80
2022-08-05T10:37:44.975Z,33.00
2022-08-05T10:40:31.150Z,33.50
2022-08-05T10:43:09.762Z,33.40
2022-08-05T10:45:41.788Z,32.40
2022-08-05T10:48:31.949Z,31.70
2022-08-05T10:51:04.019Z,31.70
2022-08-05T10:53:42.672Z,32.20
2022-08-05T10:56:21.333Z,32.80
2022-08-05T10:58:52.881Z,32.50
2022-08-05T11:02:03.791Z,32.60
2022-08-05T11:04:26.214Z,32.40
2022-08-05T11:07:06.678Z,33.00
2022-08-05T11:09:46.450Z,32.80
2022-08-05T11:12:26.516Z,32.90
2022-08-05T11:15:20.490Z,32.90
2022-08-05T11:17:59.417Z,33.00
2022-08-05T11:20:34.457Z,32.90
2022-08-05T11:23:10.529Z,32.90
2022-08-05T11:26:05.896Z,33.10
2022-08-05T11:28:25.873Z,33.10
2022-08-05T11:30:58.269Z,33.10
2022-08-05T11:33:43.808Z,32.90
2022-08-05T11:36:15.006Z,32.80
2022-08-05T11:38:45.442Z,32.80
2022-08-05T11:41:54.827Z,32.90
2022-08-05T11:44:08.286Z,32.90
2022-08-05T11:46:36.826Z,33.10
2022-08-05T11:49:05.921Z,33.20
2022-08-05T11:51:44.845Z,33.10
2022-08-05T11:54:24.497Z,33.00
2022-08-05T11:57:02.196Z,33.30
2022-08-05T11:59:49.782Z,33.60
2022-08-05T12:02:30.717Z,33.50
2022-08-05T12:05:00.732Z,33.60
2022-08-05T12:08:04.395Z,33.80
2022-08-05T12:10:20.743Z,33.70
2022-08-05T12:12:59.388Z,33.50
2022-08-05T12:15:35.949Z,33.60
2022-08-05T12:18:10.822Z,33.30
2022-08-05T12:20:38.906Z,33.60
2022-08-05T12:23:09.917Z,33.30
2022-08-05T12:25:53.584Z,33.20
2022-08-05T12:28:33.601Z,33.50
2022-08-05T12:31:02.311Z,33.60
2022-08-05T12:33:35.996Z,33.60
2022-08-05T12:36:04.325Z,33.60
2022-08-05T12:38:39.642Z,33.60
2022-08-05T12:41:12.983Z,33.50
2022-08-05T12:43:50.428Z,34.10
2022-08-05T12:46:26.164Z,34.00
2022-08-05T12:48:57.454Z,34.30
2022-08-05T12:52:14.331Z,34.00
2022-08-05T12:54:16.984Z,34.00
2022-08-05T12:56:51.924Z,34.20
2022-08-05T12:59:27.539Z,34.40
2022-08-05T13:02:15.849Z,34.80
2022-08-05T13:04:54.383Z,34.80
2022-08-05T13:07:56.102Z,35.00
2022-08-05T13:10:10.767Z,35.10
2022-08-05T13:12:50.682Z,35.00
2022-08-05T13:15:35.845Z,35.10
2022-08-05T13:18:08.993Z,34.70
2022-08-05T13:20:40.352Z,34.10
2022-08-05T13:23:08.448Z,34.00
2022-08-05T13:25:52.080Z,34.10
2022-08-05T13:28:22.871Z,34.00
2022-08-05T13:30:51.203Z,33.50
2022-08-05T13:34:23.399Z,33.00
2022-08-05T13:36:15.098Z,33.00
2022-08-05T13:38:43.200Z,32.90
2022-08-05T13:41:11.330Z,32.70
2022-08-05T13:43:45.341Z,32.90
2022-08-05T13:49:16.459Z,32.50
2022-08-05T13:55:09.772Z,32.20
2022-08-05T13:58:30.601Z,32.70
2022-08-05T14:01:02.129Z,32.50
2022-08-05T14:04:11.053Z,32.90
2022-08-05T14:07:24.942Z,33.30
2022-08-05T14:10:08.448Z,33.00
2022-08-05T14:16:16.848Z,33.70
2022-08-05T14:19:26.323Z,33.20
2022-08-05T14:22:10.025Z,33.00
2022-08-05T14:24:39.883Z,33.10
2022-08-05T14:27:17.617Z,33.40
2022-08-05T14:29:45.622Z,33.60
2022-08-05T14:32:26.873Z,33.00
2022-08-05T14:34:56.691Z,33.10
2022-08-05T14:40:43.718Z,32.70
2022-08-05T14:43:53.805Z,32.50
2022-08-05T14:46:44.919Z,32.60
2022-08-05T14:49:12.382Z,32.30
2022-08-05T14:51:42.454Z,32.50
2022-08-05T14:57:34.047Z,31.80
2022-08-05T15:02:58.507Z,31.50
2022-08-05T15:05:29.960Z,31.50
2022-08-05T15:08:05.485Z,31.30
2022-08-05T15:10:41.441Z,30.90
2022-08-05T15:13:09.073Z,31.00
2022-08-05T15:15:55.747Z,30.90
2022-08-05T15:18:24.992Z,31.20
2022-08-05T15:20:52.150Z,30.70
2022-08-05T15:23:19.331Z,30.80
2022-08-05T15:25:53.344Z,31.00
2022-08-05T15:28:27.793Z,31.20
2022-08-05T15:30:55.306Z,30.90
2022-08-05T15:34:05.867Z,31.50
2022-08-05T15:36:17.557Z,31.30
2022-08-05T15:41:00.646Z,31.10
2022-08-05T15:41:57.651Z,31.20
2022-08-05T15:44:26.550Z,30.90
2022-08-05T15:46:55.653Z,30.70
2022-08-05T15:49:40.829Z,30.90
2022-08-05T15:52:16.554Z,30.70
2022-08-05T15:54:56.130Z,30.40
2022-08-05T15:57:24.054Z,30.40
2022-08-05T15:59:56.494Z,30.60
2022-08-05T16:02:25.432Z,30.20
2022-08-05T16:04:53.369Z,30.10
2022-08-05T16:07:21.463Z,30.40
2022-08-05T16:09:50.131Z,30.10
2022-08-05T16:12:17.531Z,29.40
2022-08-05T16:14:47.180Z,28.60
2022-08-05T16:17:14.342Z,28.50
2022-08-05T16:20:03.325Z,28.20
2022-08-05T16:22:34.468Z,28.30
2022-08-05T16:25:07.911Z,28.30
2022-08-05T16:28:00.987Z,28.20
2022-08-05T16:30:26.188Z,28.10
2022-08-05T16:32:54.096Z,28.00
2022-08-05T16:35:28.657Z,28.50
2022-08-05T16:38:15.212Z,28.30
2022-08-05T16:40:52.285Z,28.00
2022-08-05T16:43:23.688Z,28.10
2022-08-05T16:46:05.192Z,28.00
2022-08-05T16:48:36.217Z,27.80
2022-08-05T16:51:08.744Z,27.60
2022-08-05T16:54:02.393Z,27.70
2022-08-05T16:56:24.193Z,27.40
2022-08-05T16:58:51.396Z,27.20
2022-08-05T17:01:19.140Z,27.20
2022-08-05T17:03:46.682Z,26.90
2022-08-05T17:06:16.416Z,27.10
2022-08-05T17:08:52.960Z,26.80
2022-08-05T17:11:23.919Z,26.90
2022-08-05T17:13:54.697Z,27.00
2022-08-05T17:16:36.553Z,26.80
2022-08-05T17:19:07.452Z,26.60
2022-08-05T17:21:37.569Z,26.80
2022-08-05T17:24:28.183Z,26.80
2022-08-05T17:26:56.547Z,26.60
2022-08-05T17:29:33.375Z,26.70
2022-08-05T17:32:11.521Z,26.70
2022-08-05T17:34:43.709Z,26.60
2022-08-05T17:37:39.396Z,26.60
2022-08-05T17:40:00.110Z,26.70
2022-08-05T17:42:32.260Z,26.40
2022-08-05T17:45:17.803Z,26.80
2022-08-05T17:47:53.219Z,26.60
2022-08-05T17:50:28.571Z,26.60
2022-08-05T17:53:00.570Z,26.60
2022-08-05T17:55:37.911Z,26.50
2022-08-05T17:58:09.370Z,26.70
2022-08-05T18:00:40.825Z,26.30
2022-08-05T18:03:39.292Z,26.60
2022-08-05T18:06:06.108Z,26.40
2022-08-05T18:08:40.548Z,26.50
2022-08-05T18:11:23.637Z,26.70
2022-08-05T18:13:56.907Z,26.40
2022-08-05T18:16:26.717Z,26.50
2022-08-05T18:18:53.872Z,26.50
2022-08-05T18:21:22.893Z,26.80
2022-08-05T18:23:53.643Z,26.60
2022-08-05T18:26:27.634Z,26.50
2022-08-05T18:28:57.083Z,26.60
2022-08-05T18:31:24.341Z,26.70
2022-08-05T18:33:52.310Z,26.70
2022-08-05T18:36:19.551Z,26.60
2022-08-05T18:38:46.735Z,26.50
2022-08-05T18:41:53.540Z,26.70
2022-08-05T18:44:06.287Z,26.70
2022-08-05T18:46:34.941Z,26.80
2022-08-05T18:49:23.352Z,26.70
2022-08-05T18:52:16.482Z,26.70
2022-08-05T18:54:45.639Z,26.50
2022-08-05T18:57:15.481Z,26.80
2022-08-05T19:00:01.442Z,26.70
2022-08-05T19:02:29.569Z,26.50
2022-08-05T19:05:02.073Z,26.90
2022-08-05T19:07:46.649Z,26.90
2022-08-05T19:10:14.478Z,27.00
2022-08-05T19:12:43.306Z,27.30
2022-08-05T19:15:54.707Z,27.20
2022-08-05T19:18:10.304Z,27.30
2022-08-05T19:20:46.586Z,27.00
2022-08-05T19:24:03.725Z,27.20
2022-08-05T19:26:02.982Z,27.00
2022-08-05T19:28:30.875Z,27.00
2022-08-05T19:30:58.062Z,27.00
2022-08-05T19:33:35.903Z,26.60
2022-08-05T19:36:05.940Z,26.70
2022-08-05T19:38:35.609Z,26.70
2022-08-05T19:41:07.199Z,26.60
2022-08-05T19:44:05.777Z,26.60
2022-08-05T19:46:29.763Z,26.20
2022-08-05T19:49:03.495Z,26.00
2022-08-05T19:52:04.459Z,26.10
2022-08-05T19:54:29.418Z,26.30
2022-08-05T19:56:59.222Z,26.30
2022-08-05T19:59:59.467Z,26.20
2022-08-05T20:02:14.771Z,25.90
2022-08-05T20:04:45.806Z,26.00
2022-08-05T20:07:13.866Z,25.70
2022-08-05T20:09:54.697Z,25.60
2022-08-05T20:12:24.576Z,25.40
2022-08-05T20:14:53.007Z,25.40
2022-08-05T20:17:23.241Z,25.10
2022-08-05T20:19:50.898Z,25.10
2022-08-05T20:22:25.063Z,25.20
2022-08-05T20:24:54.510Z,24.90
2022-08-05T20:27:26.826Z,25.00
2022-08-05T20:29:58.326Z,24.90
2022-08-05T20:32:26.800Z,25.10
2022-08-05T20:34:54.529Z,24.90
2022-08-05T20:38:06.705Z,24.80
2022-08-05T20:40:09.280Z,24.60
2022-08-05T20:42:36.580Z,24.60
2022-08-05T20:45:04.592Z,24.40
2022-08-05T20:47:32.851Z,24.30
2022-08-05T20:50:02.157Z,24.00
2022-08-05T20:52:29.918Z,24.20
2022-08-05T20:55:23.520Z,24.20
2022-08-05T20:57:45.101Z,24.30
2022-08-05T21:00:34.968Z,24.20
2022-08-05T21:03:06.874Z,24.20
2022-08-05T21:05:48.116Z,24.40
2022-08-05T21:08:26.590Z,24.20
2022-08-05T21:10:55.296Z,24.40
2022-08-05T21:13:48.150Z,24.50
2022-08-05T21:16:13.079Z,24.60
2022-08-05T21:18:42.940Z,24.50
2022-08-05T21:21:12.476Z,24.40
2022-08-05T21:23:39.689Z,24.40
2022-08-05T21:26:12.199Z,24.30
2022-08-05T21:28:40.287Z,24.20
2022-08-05T21:31:15.335Z,24.20
2022-08-05T21:33:43.810Z,23.90
2022-08-05T21:36:19.393Z,23.80
2022-08-05T21:38:55.090Z,23.70
2022-08-05T21:41:22.426Z,23.90
2022-08-05T21:44:01.268Z,23.60
2022-08-05T21:46:29.057Z,23.60
2022-08-05T21:48:56.678Z,23.50
2022-08-05T21:52:16.292Z,23.60
2022-08-05T21:54:11.615Z,23.70
2022-08-05T21:56:44.288Z,23.40
2022-08-05T21:59:22.493Z,23.30
2022-08-05T22:01:51.315Z,23.20
2022-08-05T22:04:25.376Z,23.10
2022-08-05T22:06:52.870Z,23.30
2022-08-05T22:09:21.106Z,23.30
2022-08-05T22:11:49.508Z,23.20
2022-08-05T22:14:33.643Z,23.10
2022-08-05T22:17:07.102Z,23.20
2022-08-05T22:20:00.976Z,23.20
2022-08-05T22:22:26.772Z,23.40
2022-08-05T22:25:18.109Z,23.10
2022-08-05T22:28:10.181Z,22.90
2022-08-05T22:30:44.077Z,23.00
2022-08-05T22:33:58.514Z,22.80
2022-08-05T22:36:10.125Z,23.10
2022-08-05T22:38:37.311Z,23.00
2022-08-05T22:41:09.574Z,22.80
2022-08-05T22:43:38.227Z,22.80
2022-08-05T22:46:12.265Z,22.90
2022-08-05T22:48:50.871Z,22.80
2022-08-05T22:51:23.151Z,22.90
2022-08-05T22:54:05.293Z,22.90
2022-08-05T22:56:32.521Z,22.80
2022-08-05T22:59:02.889Z,22.80
2022-08-05T23:02:04.894Z,22.90
2022-08-05T23:04:19.100Z,23.30
2022-08-05T23:06:47.863Z,23.30
2022-08-05T23:09:27.626Z,23.10
2022-08-05T23:12:02.694Z,23.00
2022-08-05T23:14:32.106Z,22.90
2022-08-05T23:17:24.593Z,23.20
2022-08-05T23:20:02.230Z,22.80
2022-08-05T23:22:30.824Z,22.80
2022-08-05T23:24:58.228Z,22.70
2022-08-05T23:27:28.959Z,22.50
2022-08-05T23:30:10.793Z,22.40
2022-08-05T23:32:38.103Z,22.50
2022-08-05T23:35:12.453Z,22.70
2022-08-05T23:37:39.621Z,23.00
2022-08-05T23:40:07.834Z,23.10
2022-08-05T23:42:37.765Z,23.00
2022-08-05T23:45:05.402Z,22.80
2022-08-05T23:47:47.734Z,22.80
2022-08-05T23:50:16.187Z,22.90
2022-08-05T23:52:50.022Z,22.70
2022-08-05T23:55:19.048Z,22.70
2022-08-05T23:57:48.832Z,22.60
